Valley International Airport
KHRL : now visible

Airfield :











YOU CAN JOIN US ON...

 
LOGIN :

Register | Disclaimer

   EN    FR    IT 

 









Legend :    VFR   Marginal VFR   IFR   Intensive IFR   Very Intensive IFR
Visi :
Ceiling :
>= 8 km
>= 3000ft
5 to 8 km
1000 to 3000 ft
1500m to 5 km
500 to 1000 ft
800 to 1500m
200 to 500 ft
< 800m
< 200 ft
Symbols :   Thunderstorms  Fog  Heavy snow  Heavy precipitations  Wind > 20 kt






- Airport Elevation : 36 ft
- IATA code : HRL


KHRL - Valley International

CURRENT METAR :
  • 081852Z 21008KT 10SM FEW030 32/23 A2989 RMK AO2 SLP121 T03170228

EXPIRED METARs :
  • 081813Z 18008KT 10SM OVC032 31/23 A2991 RMK AO2 T03110228
  • 081752Z 18008KT 10SM BKN029 OVC033 31/23 A2992 RMK AO2 SLP131 T03060228 10306 20233 58009
  • 081719Z 19007KT 10SM FEW025 BKN031 31/23 A2993 RMK AO2 T03060228
  • 081652Z 20008KT 10SM SCT024 BKN029 30/23 A2994 RMK AO2 SLP137 T03000228

TAF KHRL
Valid from the 08 at 18:00 until the 09 at 18:00 UTC


081733Z 0818/0918 17010KT P6SM BKN035
FM090100 14008KT P6SM FEW250
FM091000 16005KT 4SM BR BKN015
FM091200 VRB03KT 3SM BR BKN025
FM091600 15007KT P6SM BKN040



MET'MAP, your aeronautical weather chart ! - Copyright ORBIFLY December 2007 - Disclaimer

ORBIFLY MET'MAP TEAM :

Programming & Development : Alexandra Zaïnal
Concept & original design : Baudouin d'Aumeries
Assistance for programming : Marc-Olivier Méhu
Technical & hardware support : Manuel Goepfert

Contact : metmap@orbifly.com




SOURCES & CREDITS :

   NOAA       Earth
Advisory